x

Cape Elizabeth- 45nm Nw Of Aberdeen, Wa (46041) Wave Buoy

10:50 - Wed 16th Apr 2014 All times are PDT. -7 hours from GMT.

  • Sig Wave height 7.5ft
  • Peak Period 8s
  • Average Period 6s
  • Wind
    18mph, 20mph gusts
  • Sea Temp 51°f
  • Sea Pressure 1016.1mb
  • Cape Elizabeth- 45nm Nw Of Aberdeen, Wa
  • Cape Elizabeth- 45nm Nw Of Aberdeen, Wa

More Historic Weather Station data

Upgrade to MSW Pro to gain access to the past 30 days of data for over 8000 Wavebouys and Weather Stations around the globe.

Join Pro

Comparision Forecast

View Surf forecast
   
mié 04/16 10:50 7.5ft 8s 6s 18 20 mph 1016.1mb 51f
9:50 7ft 11s 6s 18 20 mph 1016mb 51f
8:50 6.5ft 8s 6s 18 22 mph 1016.1mb 50f
7:50 7ft 9s 7s 16 20 mph 1016.4mb 50f
6:50 7ft 11s 7s 11 16 mph 1016.6mb 51f
5:50 7ft 8s 6s 11
mph
1016.8mb 51f
4:50 7ft 12s 7s 11 13 mph 1017mb 51f
3:50 6.5ft 10s 7s 13 16 mph 1017mb 51f
2:50 6ft 12s 6s 13 18 mph 1017.3mb 51f
1:50 6.5ft 11s 6s 13 18 mph 1017.7mb 51f
12:50 7ft 10s 7s 16 20 mph 1018mb 51f
mar 04/15 11:50 6.5ft 11s 7s 13 16 mph 1018.2mb 51f
10:50 6ft 9s 6s 16 18 mph 1018.3mb 51f
9:50 6.5ft 9s 7s 11 13 mph 1018.6mb 51f
8:50 7.5ft 10s 7s 16 18 mph 1018.6mb 51f
7:50 7.5ft 9s 7s 16 20 mph 1018.7mb 51f
6:50 7.5ft 10s 7s 13 18 mph 1018.7mb 51f
5:50 8ft 10s 6s 18 22 mph 1019.6mb 51f
4:50 8.5ft 10s 7s 22 27 mph 1020.3mb 51f
3:50 7.5ft 11s 7s 20 25 mph 1020.7mb 51f
2:50 8.5ft 12s 7s 18 20 mph 1021.3mb 51f
1:50 8.5ft 11s 8s 16 20 mph 1021.8mb 51f
12:50 8ft 11s 8s 13 16 mph 1022.5mb 51f
11:50 8ft 12s 8s 13 16 mph 1022.9mb 51f
10:50 7.5ft 12s 7s 11 13 mph 1023.1mb 51f
9:50 8.5ft 12s 8s 9 11 mph 1022.9mb 51f
8:50 9.5ft 12s 8s 7 9 mph 1022.8mb 51f
7:50 9.5ft 12s 8s 11 13 mph 1022.6mb 51f
6:50 10ft 12s 9s 13 16 mph 1022.7mb 50f
5:50  -   -   -  11 18 mph 1022.7mb 50f
4:50 9ft 12s 8s 11 16 mph 1022.7mb 50f
3:50 7.5ft 12s 7s 16 18 mph 1022.9mb 50f
2:50 6ft 13s 6s 16 20 mph 1023mb 50f
1:50 5.5ft 13s 6s 13 18 mph 1023.3mb 51f
12:50 5.5ft 7s 6s 13 16 mph 1022.9mb 51f
lun 04/14 11:50 5.5ft 6s 6s 13 18 mph 1023mb 51f
10:50 5.5ft 14s 5s 18 20 mph 1023.2mb 51f
9:50 5.5ft 13s 5s 16 20 mph 1023mb 51f
8:50 6ft 14s 6s 18 22 mph 1022.9mb 51f
7:50 6ft 14s 5s 18 22 mph 1022.7mb 51f
6:50 6ft 13s 6s 20 25 mph 1022.9mb 51f
5:50 6.5ft 13s 6s 20 25 mph 1022.6mb 51f
3:50 5ft 13s 5s 22 25 mph 1022.1mb 51f
2:50 5.5ft 14s 6s 22 25 mph 1022.3mb 51f
1:50 5.5ft 13s 6s 22 27 mph 1022mb 51f
12:50 5ft 13s 5s 20 25 mph 1021.8mb 51f
11:50 4.5ft 13s 6s 18 22 mph 1021.4mb 51f
10:50 4.5ft 14s 6s 18 22 mph 1020.7mb 51f
9:50 4.5ft 13s 8s 20 25 mph 1020.2mb 51f
8:50 4ft 14s 9s 11 16 mph 1019.9mb 51f
7:50 4.5ft 14s 10s 7 9 mph 1019.9mb 51f
6:50 4.5ft 14s 9s 9 18 mph 1019.5mb 51f
5:50 4.5ft 14s 9s 4 7 mph 1018.7mb 51f
4:50 5ft 14s 9s 2
mph
1019mb 51f
3:50 4.5ft 14s 9s  -  2 mph 1019mb 51f
2:50 4.5ft 15s 9s 4
mph
1019.3mb 51f
1:50 4.5ft 15s 9s 7 9 mph 1019.4mb 52f
12:50 4ft 15s 8s 7
mph
1020.1mb 52f
dom 04/13 11:50 4.5ft 15s 9s 9 11 mph 1020.8mb 52f
10:50 4.5ft 15s 8s 11
mph
1021.3mb 52f
9:50 5ft 15s 8s 11 13 mph 1021.8mb 52f
8:50 5ft 15s 8s 11
mph
1022.1mb 53f
7:50 4.5ft 14s 8s 11 13 mph 1022.1mb 53f
6:50 4.5ft 14s 9s 9 11 mph 1022.4mb 53f
5:50 4.5ft 15s 8s 9
mph
1023mb 54f
4:50 4.5ft 15s 8s 7 9 mph 1023.5mb 54f
3:50 4.5ft 15s 8s 9 11 mph 1024.1mb 54f
2:50 4.5ft 15s 8s 11 13 mph 1024.7mb 54f
1:50 4.5ft 16s 8s 9 11 mph 1025mb 53f
12:50 5ft 15s 8s 4 7 mph 1025.3mb 53f
11:50 5ft 16s 8s 2 4 mph 1025.5mb 52f
10:50 5ft 16s 8s 4 7 mph 1025.4mb 52f
9:50 5ft 16s 8s 9 11 mph 1024.9mb 52f
8:50 5ft 16s 8s 9 11 mph 1024.6mb 51f
7:50 5.5ft 10s 8s 7
mph
1024.3mb 51f
6:50 5ft 11s 7s 7 9 mph 1023.8mb 51f
5:50 5.5ft 11s 8s 4 7 mph 1023.4mb 51f
4:50 5ft 11s 7s 4 7 mph 1023.3mb 51f
3:50 5.5ft 16s 8s 4 7 mph 1022.9mb 51f
2:50 5ft 10s 7s 4
mph
1022.7mb 52f
1:50 5.5ft 10s 7s 7
mph
1022.3mb 52f
12:50 5ft 11s 7s 7 9 mph 1021.8mb 52f
sáb 04/12 11:50 6ft 11s 7s 13 16 mph 1021.3mb 52f
10:50 6ft 11s 6s 16 20 mph 1021.2mb 52f
9:50 6ft 10s 7s 13 16 mph 1021.1mb 52f
8:50 6ft 11s 6s 13 16 mph 1020.8mb 52f
7:50 6ft 11s 6s 16 18 mph 1020.4mb 52f